createdAt,value
2023-02-19T00:01:53.510Z,14.27
2023-02-19T00:05:54.812Z,11.57
2023-02-19T00:09:56.188Z,11.13
2023-02-19T00:14:00.057Z,12.73
2023-02-19T00:18:01.357Z,18.57
2023-02-19T00:22:02.763Z,14.53
2023-02-19T00:26:17.745Z,13.83
2023-02-19T00:30:20.207Z,13.03
2023-02-19T00:34:21.529Z,12.20
2023-02-19T00:38:22.938Z,14.33
2023-02-19T00:42:25.733Z,16.30
2023-02-19T00:46:38.719Z,12.50
2023-02-19T00:50:40.057Z,11.17
2023-02-19T00:54:41.453Z,11.77
2023-02-19T00:58:43.075Z,11.97
2023-02-19T01:02:44.423Z,13.03
2023-02-19T01:06:45.781Z,12.90
2023-02-19T01:10:47.754Z,12.63
2023-02-19T01:14:49.085Z,13.00
2023-02-19T01:18:50.819Z,13.47
2023-02-19T01:22:52.468Z,11.37
2023-02-19T01:26:54.338Z,11.23
2023-02-19T01:30:55.657Z,9.33
2023-02-19T01:34:57.041Z,10.83
2023-02-19T01:39:00.653Z,10.07
2023-02-19T01:43:03.594Z,9.47
2023-02-19T01:47:04.953Z,10.90
2023-02-19T01:51:11.262Z,10.57
2023-02-19T01:55:14.139Z,11.30
2023-02-19T01:59:18.236Z,10.53
2023-02-19T02:03:20.685Z,10.03
2023-02-19T02:07:52.445Z,9.60
2023-02-19T02:11:53.860Z,9.97
2023-02-19T02:16:20.429Z,10.50
2023-02-19T02:20:46.537Z,10.13
2023-02-19T02:25:09.530Z,9.23
2023-02-19T02:29:29.266Z,9.20
2023-02-19T02:33:30.588Z,8.13
2023-02-19T02:37:35.606Z,10.53
2023-02-19T02:41:43.855Z,9.57
2023-02-19T02:45:45.268Z,9.90
2023-02-19T02:50:05.085Z,10.40
2023-02-19T02:54:44.531Z,9.17
2023-02-19T02:58:48.418Z,9.67
2023-02-19T03:02:49.966Z,11.10
2023-02-19T03:06:52.463Z,9.43
2023-02-19T03:11:28.329Z,9.73
2023-02-19T03:15:54.298Z,10.23
2023-02-19T03:19:58.556Z,11.67
2023-02-19T03:24:19.063Z,9.83
2023-02-19T03:28:43.797Z,11.80
2023-02-19T03:32:48.536Z,10.20
2023-02-19T03:37:00.433Z,9.93
2023-02-19T03:41:40.397Z,11.07
2023-02-19T03:45:49.129Z,10.33
2023-02-19T03:49:59.857Z,10.70
2023-02-19T03:54:24.077Z,11.27
2023-02-19T03:58:35.276Z,11.30
2023-02-19T04:02:43.637Z,10.77
2023-02-19T04:06:52.491Z,10.23
2023-02-19T04:10:55.178Z,9.97
2023-02-19T04:15:06.432Z,10.70
2023-02-19T04:19:19.712Z,11.17
2023-02-19T04:23:24.889Z,11.03
2023-02-19T04:27:26.562Z,12.07
2023-02-19T04:31:31.292Z,11.97
2023-02-19T04:35:32.743Z,12.40
2023-02-19T04:39:34.175Z,12.33
2023-02-19T04:43:35.462Z,13.07
2023-02-19T04:47:36.761Z,14.57
2023-02-19T04:51:39.332Z,15.20
2023-02-19T04:55:40.693Z,15.73
2023-02-19T04:59:42.091Z,16.37
2023-02-19T05:03:43.969Z,15.83
2023-02-19T05:07:45.301Z,15.90
2023-02-19T05:11:46.648Z,17.70
2023-02-19T05:16:15.953Z,18.23
2023-02-19T05:20:17.378Z,17.80
2023-02-19T05:24:19.040Z,18.67
2023-02-19T05:28:21.830Z,19.20
2023-02-19T05:32:23.176Z,18.13
2023-02-19T05:36:24.549Z,17.73
2023-02-19T05:40:25.879Z,17.97
2023-02-19T05:44:27.362Z,18.80
2023-02-19T05:48:28.662Z,18.20
2023-02-19T05:52:29.950Z,17.43
2023-02-19T05:56:41.974Z,18.87
2023-02-19T06:00:43.297Z,20.27
2023-02-19T06:04:44.600Z,22.53
2023-02-19T06:08:47.667Z,23.00
2023-02-19T06:12:53.329Z,21.83
2023-02-19T06:16:54.659Z,21.43
2023-02-19T06:21:07.860Z,21.57
2023-02-19T06:25:12.443Z,20.80
2023-02-19T06:29:13.759Z,20.47
2023-02-19T06:33:15.093Z,20.83
2023-02-19T06:37:16.662Z,21.90
2023-02-19T06:41:18.854Z,21.50
2023-02-19T06:45:20.451Z,21.73
2023-02-19T06:49:22.110Z,21.53
2023-02-19T06:53:23.582Z,20.07
2023-02-19T06:57:24.930Z,19.77
2023-02-19T07:01:27.145Z,19.10
2023-02-19T07:05:28.436Z,20.67
2023-02-19T07:09:29.813Z,17.47
2023-02-19T07:13:31.304Z,18.53
2023-02-19T07:17:34.382Z,16.17
2023-02-19T07:21:37.965Z,15.87
2023-02-19T07:25:39.605Z,16.73
2023-02-19T07:29:40.950Z,15.90
2023-02-19T07:33:46.276Z,15.53
2023-02-19T07:37:47.655Z,17.80
2023-02-19T07:41:48.911Z,16.90
2023-02-19T07:45:50.636Z,16.47
2023-02-19T07:49:51.980Z,17.20
2023-02-19T07:53:53.458Z,16.93
2023-02-19T07:57:54.896Z,16.77
2023-02-19T08:02:14.986Z,18.00
2023-02-19T08:06:16.356Z,17.30
2023-02-19T08:10:36.413Z,16.37
2023-02-19T08:14:37.734Z,16.70
2023-02-19T08:18:39.334Z,15.30
2023-02-19T08:22:40.782Z,16.33
2023-02-19T08:26:42.142Z,16.07
2023-02-19T08:30:45.699Z,15.73
2023-02-19T08:34:47.031Z,16.23
2023-02-19T08:38:48.394Z,14.87
2023-02-19T08:42:49.967Z,13.73
2023-02-19T08:46:51.236Z,13.50
2023-02-19T08:50:57.368Z,14.03
2023-02-19T08:54:59.388Z,14.27
2023-02-19T08:59:01.004Z,11.53
2023-02-19T09:03:02.389Z,11.30
2023-02-19T09:07:07.578Z,10.17
2023-02-19T09:11:09.180Z,10.10
2023-02-19T09:15:10.779Z,9.33
2023-02-19T09:19:12.081Z,9.87
2023-02-19T09:23:13.414Z,8.73
2023-02-19T09:27:16.969Z,7.63
2023-02-19T09:31:18.381Z,7.47
2023-02-19T09:35:19.718Z,7.10
2023-02-19T09:39:21.605Z,7.43
2023-02-19T09:43:26.365Z,7.53
2023-02-19T09:47:31.327Z,7.03
2023-02-19T09:51:36.527Z,6.73
2023-02-19T09:55:43.414Z,6.93
2023-02-19T09:59:57.540Z,6.17
2023-02-19T10:03:58.868Z,6.07
2023-02-19T10:08:04.536Z,6.47
2023-02-19T10:12:15.994Z,6.87
2023-02-19T10:16:26.788Z,7.23
2023-02-19T10:20:28.218Z,6.93
2023-02-19T10:24:30.722Z,7.13
2023-02-19T10:28:35.911Z,7.20
2023-02-19T10:32:37.647Z,6.80
2023-02-19T10:36:41.914Z,6.57
2023-02-19T10:40:46.896Z,6.30
2023-02-19T10:44:58.721Z,6.17
2023-02-19T10:49:30.187Z,7.40
2023-02-19T10:53:47.524Z,9.07
2023-02-19T10:57:50.353Z,9.00
2023-02-19T11:01:59.406Z,9.03
2023-02-19T11:06:06.741Z,9.30
2023-02-19T11:10:21.400Z,8.50
2023-02-19T11:14:24.729Z,7.83
2023-02-19T11:18:31.791Z,7.20
2023-02-19T11:22:39.937Z,7.27
2023-02-19T11:26:41.384Z,7.87
2023-02-19T11:30:45.058Z,8.97
2023-02-19T11:34:47.751Z,8.63
2023-02-19T11:38:50.240Z,8.40
2023-02-19T11:43:12.764Z,8.30
2023-02-19T11:47:44.824Z,8.07
2023-02-19T11:51:55.220Z,7.77
2023-02-19T11:56:18.263Z,8.30
2023-02-19T12:00:44.490Z,8.00
2023-02-19T12:05:01.000Z,8.10
2023-02-19T12:09:14.673Z,7.60
2023-02-19T12:13:46.476Z,7.43
2023-02-19T12:17:55.619Z,7.40
2023-02-19T12:22:16.051Z,6.10
2023-02-19T12:26:54.992Z,5.20
2023-02-19T12:31:14.258Z,4.63
2023-02-19T12:35:32.697Z,4.97
2023-02-19T12:39:45.672Z,4.10
2023-02-19T12:43:54.421Z,3.10
2023-02-19T12:48:08.059Z,3.00
2023-02-19T12:52:21.926Z,3.00
2023-02-19T12:56:30.828Z,2.90
2023-02-19T13:00:44.289Z,3.07
2023-02-19T13:04:58.041Z,4.00
2023-02-19T13:09:11.801Z,4.70
2023-02-19T13:13:21.782Z,4.83
2023-02-19T13:17:31.880Z,5.03
2023-02-19T13:21:56.434Z,5.33
2023-02-19T13:26:23.550Z,5.93
2023-02-19T13:30:37.483Z,5.80
2023-02-19T13:34:59.635Z,4.90
2023-02-19T13:39:05.641Z,4.73
2023-02-19T13:43:34.841Z,4.27
2023-02-19T13:47:59.144Z,3.53
2023-02-19T13:52:29.757Z,6.60
2023-02-19T13:56:34.182Z,4.40
2023-02-19T14:00:51.773Z,3.47
2023-02-19T14:05:02.336Z,4.77
2023-02-19T14:09:03.837Z,4.90
2023-02-19T14:13:08.399Z,4.93
2023-02-19T14:17:09.644Z,5.00
2023-02-19T14:21:17.436Z,5.30
2023-02-19T14:25:31.055Z,5.80
2023-02-19T14:29:35.296Z,5.87
2023-02-19T14:33:40.172Z,6.10
2023-02-19T14:37:44.958Z,6.17
2023-02-19T14:41:51.264Z,5.93
2023-02-19T14:46:07.999Z,7.03
2023-02-19T14:50:17.478Z,6.97
2023-02-19T14:54:35.014Z,7.93
2023-02-19T14:58:36.927Z,9.27
2023-02-19T15:02:42.999Z,8.70
2023-02-19T15:06:44.450Z,10.70
2023-02-19T15:10:46.833Z,13.30
2023-02-19T15:14:50.751Z,9.73
2023-02-19T15:18:54.273Z,10.10
2023-02-19T15:22:58.424Z,9.50
2023-02-19T15:26:59.873Z,9.90
2023-02-19T15:31:02.066Z,9.90
2023-02-19T15:35:04.644Z,11.40
2023-02-19T15:39:06.081Z,11.33
2023-02-19T15:43:26.323Z,11.10
2023-02-19T15:47:43.787Z,10.90
2023-02-19T15:52:00.048Z,10.27
2023-02-19T15:56:09.672Z,10.00
2023-02-19T16:00:23.719Z,10.17
2023-02-19T16:04:25.132Z,10.27
2023-02-19T16:08:35.392Z,9.13
2023-02-19T16:12:36.755Z,9.90
2023-02-19T16:16:41.059Z,8.93
2023-02-19T16:20:47.578Z,9.00
2023-02-19T16:24:52.710Z,9.60
2023-02-19T16:28:55.205Z,11.10
2023-02-19T16:33:21.557Z,8.77
2023-02-19T16:37:41.177Z,8.77
2023-02-19T16:41:46.522Z,8.57
2023-02-19T16:45:47.910Z,9.37
2023-02-19T16:49:49.283Z,9.90
2023-02-19T16:53:50.727Z,9.67
2023-02-19T16:57:52.423Z,10.33
2023-02-19T17:01:53.790Z,11.07
2023-02-19T17:05:56.313Z,10.60
2023-02-19T17:09:57.812Z,10.50
2023-02-19T17:13:59.257Z,11.57
2023-02-19T17:18:00.641Z,11.43
2023-02-19T17:22:02.051Z,10.57
2023-02-19T17:26:03.479Z,11.27
2023-02-19T17:30:15.487Z,11.17
2023-02-19T17:34:16.969Z,10.47
2023-02-19T17:38:18.368Z,10.80
2023-02-19T17:42:19.995Z,9.67
2023-02-19T17:46:23.574Z,10.57
2023-02-19T17:50:28.680Z,8.77
2023-02-19T17:54:30.167Z,7.17
2023-02-19T17:58:31.552Z,6.70
2023-02-19T18:02:32.930Z,5.10
2023-02-19T18:06:35.900Z,5.10
2023-02-19T18:10:37.394Z,4.77
2023-02-19T18:14:38.731Z,3.77
2023-02-19T18:18:40.329Z,3.80
2023-02-19T18:22:42.444Z,3.47
2023-02-19T18:26:44.580Z,2.80
2023-02-19T18:30:45.965Z,2.87
2023-02-19T18:34:52.547Z,2.90
2023-02-19T18:38:54.021Z,3.93
2023-02-19T18:42:55.657Z,2.97
2023-02-19T18:46:57.092Z,2.37
2023-02-19T18:50:58.502Z,2.40
2023-02-19T18:55:00.518Z,2.30
2023-02-19T18:59:04.275Z,2.20
2023-02-19T19:03:06.419Z,2.10
2023-02-19T19:07:09.266Z,2.40
2023-02-19T19:11:11.067Z,3.03
2023-02-19T19:15:12.732Z,3.40
2023-02-19T19:19:14.737Z,2.63
2023-02-19T19:23:16.130Z,2.70
2023-02-19T19:27:20.716Z,2.73
2023-02-19T19:31:22.982Z,2.70
2023-02-19T19:35:24.339Z,3.20
2023-02-19T19:39:25.714Z,4.43
2023-02-19T19:43:31.350Z,3.60
2023-02-19T19:47:32.772Z,3.47
2023-02-19T19:51:35.135Z,3.10
2023-02-19T19:55:36.733Z,3.33
2023-02-19T19:59:39.226Z,3.10
2023-02-19T20:03:40.616Z,3.67
2023-02-19T20:07:42.253Z,3.67
2023-02-19T20:11:48.878Z,3.83
2023-02-19T20:15:51.333Z,4.10
2023-02-19T20:19:53.454Z,3.40
2023-02-19T20:23:54.798Z,3.93
2023-02-19T20:27:56.250Z,4.17
2023-02-19T20:32:02.457Z,3.50
2023-02-19T20:36:04.237Z,3.77
2023-02-19T20:40:06.998Z,3.70
2023-02-19T20:44:08.296Z,3.33
2023-02-19T20:48:09.634Z,3.70
2023-02-19T20:52:10.928Z,3.80
2023-02-19T20:56:12.829Z,5.30
2023-02-19T21:00:15.596Z,5.33
2023-02-19T21:04:18.311Z,4.27
2023-02-19T21:08:19.614Z,5.10
2023-02-19T21:12:22.433Z,5.00
2023-02-19T21:16:23.736Z,5.70
2023-02-19T21:20:25.099Z,5.23
2023-02-19T21:24:26.432Z,5.80
2023-02-19T21:28:27.800Z,5.70
2023-02-19T21:32:29.181Z,5.50
2023-02-19T21:36:30.876Z,5.97
2023-02-19T21:40:32.874Z,6.37
2023-02-19T21:44:34.268Z,6.53
2023-02-19T21:48:35.568Z,6.13
2023-02-19T21:52:38.463Z,4.93
2023-02-19T21:56:39.845Z,5.20
2023-02-19T22:00:41.216Z,5.33
2023-02-19T22:04:42.479Z,6.33
2023-02-19T22:08:44.569Z,6.77
2023-02-19T22:12:47.095Z,5.90
2023-02-19T22:16:51.788Z,6.93
2023-02-19T22:20:53.206Z,7.67
2023-02-19T22:24:56.745Z,7.63
2023-02-19T22:28:59.442Z,7.87
2023-02-19T22:33:00.869Z,9.63
2023-02-19T22:37:02.189Z,9.50
2023-02-19T22:41:03.553Z,9.77
2023-02-19T22:45:06.081Z,10.87
2023-02-19T22:49:07.576Z,10.00
2023-02-19T22:53:08.891Z,11.70
2023-02-19T22:57:10.209Z,11.00
2023-02-19T23:01:14.057Z,11.63
2023-02-19T23:05:16.182Z,10.93
2023-02-19T23:09:19.318Z,11.50
2023-02-19T23:13:20.713Z,11.47
2023-02-19T23:17:21.988Z,13.53
2023-02-19T23:21:23.424Z,18.53
2023-02-19T23:25:24.787Z,13.37
2023-02-19T23:29:27.873Z,12.83
2023-02-19T23:33:29.284Z,13.97
2023-02-19T23:37:30.655Z,14.70
2023-02-19T23:41:32.022Z,15.20
2023-02-19T23:45:33.440Z,14.20
2023-02-19T23:49:34.828Z,14.50
2023-02-19T23:53:36.141Z,14.70
2023-02-19T23:57:37.492Z,16.23
